sensor_id;sensor_type;location;lat;lon;timestamp;P1;durP1;ratioP1;P2;durP2;ratioP2
73170;SDS011;61381;50.118;19.962;2023-02-26T00:00:48;3.53;;;2.80;;
73170;SDS011;61381;50.118;19.962;2023-02-26T00:06:10;5.68;;;3.28;;
73170;SDS011;61381;50.118;19.962;2023-02-26T00:11:12;4.10;;;2.40;;
73170;SDS011;61381;50.118;19.962;2023-02-26T00:16:16;2.05;;;1.60;;
73170;SDS011;61381;50.118;19.962;2023-02-26T00:21:27;4.80;;;2.70;;
73170;SDS011;61381;50.118;19.962;2023-02-26T00:26:29;4.32;;;1.48;;
73170;SDS011;61381;50.118;19.962;2023-02-26T00:31:32;2.65;;;1.60;;
73170;SDS011;61381;50.118;19.962;2023-02-26T00:36:38;5.63;;;2.95;;
73170;SDS011;61381;50.118;19.962;2023-02-26T00:41:45;4.72;;;2.55;;
73170;SDS011;61381;50.118;19.962;2023-02-26T00:46:47;5.70;;;2.60;;
73170;SDS011;61381;50.118;19.962;2023-02-26T00:51:57;6.05;;;2.45;;
73170;SDS011;61381;50.118;19.962;2023-02-26T00:57:01;3.55;;;1.90;;
73170;SDS011;61381;50.118;19.962;2023-02-26T01:02:02;6.03;;;2.60;;
73170;SDS011;61381;50.118;19.962;2023-02-26T01:07:05;4.15;;;2.13;;
73170;SDS011;61381;50.118;19.962;2023-02-26T01:12:09;5.00;;;2.67;;
73170;SDS011;61381;50.118;19.962;2023-02-26T01:17:13;5.75;;;2.72;;
73170;SDS011;61381;50.118;19.962;2023-02-26T01:22:24;4.75;;;2.28;;
73170;SDS011;61381;50.118;19.962;2023-02-26T01:27:29;4.43;;;2.58;;
73170;SDS011;61381;50.118;19.962;2023-02-26T01:32:34;5.35;;;2.28;;
73170;SDS011;61381;50.118;19.962;2023-02-26T01:37:45;3.22;;;1.73;;
73170;SDS011;61381;50.118;19.962;2023-02-26T01:42:53;5.80;;;2.53;;
73170;SDS011;61381;50.118;19.962;2023-02-26T01:47:59;3.08;;;1.65;;
73170;SDS011;61381;50.118;19.962;2023-02-26T01:53:18;3.90;;;2.38;;
73170;SDS011;61381;50.118;19.962;2023-02-26T01:58:21;5.05;;;3.03;;
73170;SDS011;61381;50.118;19.962;2023-02-26T02:03:25;7.07;;;2.80;;
73170;SDS011;61381;50.118;19.962;2023-02-26T02:08:32;3.53;;;2.25;;
73170;SDS011;61381;50.118;19.962;2023-02-26T02:13:40;4.70;;;2.10;;
73170;SDS011;61381;50.118;19.962;2023-02-26T02:18:57;5.45;;;3.22;;
73170;SDS011;61381;50.118;19.962;2023-02-26T02:24:08;3.25;;;2.03;;
73170;SDS011;61381;50.118;19.962;2023-02-26T02:29:25;5.80;;;2.47;;
73170;SDS011;61381;50.118;19.962;2023-02-26T02:34:39;6.50;;;3.80;;
73170;SDS011;61381;50.118;19.962;2023-02-26T02:39:46;3.78;;;2.03;;
73170;SDS011;61381;50.118;19.962;2023-02-26T02:44:52;3.90;;;2.80;;
73170;SDS011;61381;50.118;19.962;2023-02-26T02:50:00;4.53;;;2.63;;
73170;SDS011;61381;50.118;19.962;2023-02-26T02:55:07;5.55;;;2.38;;
73170;SDS011;61381;50.118;19.962;2023-02-26T03:00:13;3.70;;;2.17;;
73170;SDS011;61381;50.118;19.962;2023-02-26T03:05:19;3.97;;;1.80;;
73170;SDS011;61381;50.118;19.962;2023-02-26T03:10:20;4.93;;;1.88;;
73170;SDS011;61381;50.118;19.962;2023-02-26T03:15:25;5.47;;;2.17;;
73170;SDS011;61381;50.118;19.962;2023-02-26T03:20:34;5.65;;;2.47;;
73170;SDS011;61381;50.118;19.962;2023-02-26T03:25:43;5.93;;;4.03;;
73170;SDS011;61381;50.118;19.962;2023-02-26T03:30:49;3.25;;;2.35;;
73170;SDS011;61381;50.118;19.962;2023-02-26T03:35:59;5.45;;;1.98;;
73170;SDS011;61381;50.118;19.962;2023-02-26T03:41:06;4.63;;;2.38;;
73170;SDS011;61381;50.118;19.962;2023-02-26T03:46:13;5.95;;;2.85;;
73170;SDS011;61381;50.118;19.962;2023-02-26T03:51:17;5.75;;;3.17;;
73170;SDS011;61381;50.118;19.962;2023-02-26T03:56:21;3.20;;;2.00;;
73170;SDS011;61381;50.118;19.962;2023-02-26T04:01:28;3.72;;;1.80;;
73170;SDS011;61381;50.118;19.962;2023-02-26T04:06:35;3.80;;;1.90;;
73170;SDS011;61381;50.118;19.962;2023-02-26T04:11:36;3.38;;;1.55;;
73170;SDS011;61381;50.118;19.962;2023-02-26T04:16:41;5.35;;;2.63;;
73170;SDS011;61381;50.118;19.962;2023-02-26T04:21:45;3.50;;;2.10;;
73170;SDS011;61381;50.118;19.962;2023-02-26T04:26:47;4.47;;;2.65;;
73170;SDS011;61381;50.118;19.962;2023-02-26T04:31:49;3.08;;;2.22;;
73170;SDS011;61381;50.118;19.962;2023-02-26T04:36:52;4.30;;;2.10;;
73170;SDS011;61381;50.118;19.962;2023-02-26T04:41:53;2.15;;;1.23;;
73170;SDS011;61381;50.118;19.962;2023-02-26T04:46:54;2.28;;;1.35;;
73170;SDS011;61381;50.118;19.962;2023-02-26T04:51:56;3.00;;;1.80;;
73170;SDS011;61381;50.118;19.962;2023-02-26T04:56:58;2.10;;;1.13;;
73170;SDS011;61381;50.118;19.962;2023-02-26T05:01:59;1.92;;;0.82;;
73170;SDS011;61381;50.118;19.962;2023-02-26T05:07:01;2.03;;;1.55;;
73170;SDS011;61381;50.118;19.962;2023-02-26T05:12:02;4.60;;;1.30;;
73170;SDS011;61381;50.118;19.962;2023-02-26T05:17:04;3.97;;;2.08;;
73170;SDS011;61381;50.118;19.962;2023-02-26T05:22:06;4.25;;;2.05;;
73170;SDS011;61381;50.118;19.962;2023-02-26T05:27:07;2.58;;;1.25;;
73170;SDS011;61381;50.118;19.962;2023-02-26T05:32:09;2.83;;;1.67;;
73170;SDS011;61381;50.118;19.962;2023-02-26T05:37:12;2.15;;;1.52;;
73170;SDS011;61381;50.118;19.962;2023-02-26T05:42:13;2.42;;;1.88;;
73170;SDS011;61381;50.118;19.962;2023-02-26T05:47:15;4.75;;;2.25;;
73170;SDS011;61381;50.118;19.962;2023-02-26T05:52:17;6.30;;;2.22;;
73170;SDS011;61381;50.118;19.962;2023-02-26T05:57:18;1.42;;;1.00;;
73170;SDS011;61381;50.118;19.962;2023-02-26T06:02:19;2.83;;;1.38;;
73170;SDS011;61381;50.118;19.962;2023-02-26T06:07:22;2.58;;;1.20;;
73170;SDS011;61381;50.118;19.962;2023-02-26T06:12:23;3.83;;;1.83;;
73170;SDS011;61381;50.118;19.962;2023-02-26T06:17:25;3.53;;;1.50;;
73170;SDS011;61381;50.118;19.962;2023-02-26T06:22:27;8.20;;;3.40;;
73170;SDS011;61381;50.118;19.962;2023-02-26T06:27:28;2.05;;;1.52;;
73170;SDS011;61381;50.118;19.962;2023-02-26T06:32:30;4.28;;;1.58;;
73170;SDS011;61381;50.118;19.962;2023-02-26T06:37:32;2.60;;;1.23;;
73170;SDS011;61381;50.118;19.962;2023-02-26T06:42:33;4.57;;;2.10;;
73170;SDS011;61381;50.118;19.962;2023-02-26T06:47:34;2.13;;;1.55;;
73170;SDS011;61381;50.118;19.962;2023-02-26T06:52:37;2.90;;;1.55;;
73170;SDS011;61381;50.118;19.962;2023-02-26T06:57:38;5.95;;;2.67;;
73170;SDS011;61381;50.118;19.962;2023-02-26T07:02:39;3.25;;;1.70;;
73170;SDS011;61381;50.118;19.962;2023-02-26T07:07:42;7.28;;;2.55;;
73170;SDS011;61381;50.118;19.962;2023-02-26T07:12:43;5.32;;;2.72;;
73170;SDS011;61381;50.118;19.962;2023-02-26T07:17:44;3.85;;;1.90;;
73170;SDS011;61381;50.118;19.962;2023-02-26T07:22:47;3.97;;;2.35;;
73170;SDS011;61381;50.118;19.962;2023-02-26T07:27:48;5.00;;;2.88;;
73170;SDS011;61381;50.118;19.962;2023-02-26T07:32:49;9.60;;;1.70;;
73170;SDS011;61381;50.118;19.962;2023-02-26T07:37:52;3.08;;;1.33;;
73170;SDS011;61381;50.118;19.962;2023-02-26T07:42:53;5.38;;;3.25;;
73170;SDS011;61381;50.118;19.962;2023-02-26T07:47:54;3.85;;;2.05;;
73170;SDS011;61381;50.118;19.962;2023-02-26T07:52:57;4.22;;;1.33;;
73170;SDS011;61381;50.118;19.962;2023-02-26T07:57:58;4.70;;;2.70;;
73170;SDS011;61381;50.118;19.962;2023-02-26T08:02:59;4.05;;;2.05;;
73170;SDS011;61381;50.118;19.962;2023-02-26T08:08:01;4.72;;;2.05;;
73170;SDS011;61381;50.118;19.962;2023-02-26T08:13:03;3.38;;;1.67;;
73170;SDS011;61381;50.118;19.962;2023-02-26T08:23:07;5.25;;;2.95;;
73170;SDS011;61381;50.118;19.962;2023-02-26T08:28:08;7.13;;;3.95;;
73170;SDS011;61381;50.118;19.962;2023-02-26T08:33:09;8.40;;;4.03;;
73170;SDS011;61381;50.118;19.962;2023-02-26T08:38:13;5.65;;;3.40;;
73170;SDS011;61381;50.118;19.962;2023-02-26T08:43:14;3.88;;;1.75;;
73170;SDS011;61381;50.118;19.962;2023-02-26T08:48:15;4.82;;;2.10;;
73170;SDS011;61381;50.118;19.962;2023-02-26T08:53:18;2.63;;;1.52;;
73170;SDS011;61381;50.118;19.962;2023-02-26T08:58:19;4.78;;;1.48;;
73170;SDS011;61381;50.118;19.962;2023-02-26T09:03:21;3.03;;;1.85;;
73170;SDS011;61381;50.118;19.962;2023-02-26T09:08:23;2.47;;;2.03;;
73170;SDS011;61381;50.118;19.962;2023-02-26T09:13:24;2.08;;;1.35;;
73170;SDS011;61381;50.118;19.962;2023-02-26T09:18:25;4.72;;;2.90;;
73170;SDS011;61381;50.118;19.962;2023-02-26T09:23:28;3.05;;;1.95;;
73170;SDS011;61381;50.118;19.962;2023-02-26T09:28:29;4.85;;;1.90;;
73170;SDS011;61381;50.118;19.962;2023-02-26T09:33:30;3.08;;;1.90;;
73170;SDS011;61381;50.118;19.962;2023-02-26T09:38:33;5.43;;;2.50;;
73170;SDS011;61381;50.118;19.962;2023-02-26T09:49:03;2.90;;;1.60;;
73170;SDS011;61381;50.118;19.962;2023-02-26T09:54:15;3.97;;;1.60;;
73170;SDS011;61381;50.118;19.962;2023-02-26T09:59:20;4.40;;;2.33;;
73170;SDS011;61381;50.118;19.962;2023-02-26T10:04:24;3.58;;;1.42;;
73170;SDS011;61381;50.118;19.962;2023-02-26T10:09:42;3.35;;;1.58;;
73170;SDS011;61381;50.118;19.962;2023-02-26T10:14:57;5.22;;;3.00;;
73170;SDS011;61381;50.118;19.962;2023-02-26T10:20:03;2.50;;;1.48;;
73170;SDS011;61381;50.118;19.962;2023-02-26T10:25:14;4.00;;;1.75;;
73170;SDS011;61381;50.118;19.962;2023-02-26T10:30:36;4.20;;;1.92;;
73170;SDS011;61381;50.118;19.962;2023-02-26T10:35:41;1.42;;;1.00;;
73170;SDS011;61381;50.118;19.962;2023-02-26T10:40:50;2.40;;;1.27;;
73170;SDS011;61381;50.118;19.962;2023-02-26T10:46:03;3.50;;;2.05;;
73170;SDS011;61381;50.118;19.962;2023-02-26T10:51:16;3.28;;;1.80;;
73170;SDS011;61381;50.118;19.962;2023-02-26T10:56:21;1.98;;;1.48;;
73170;SDS011;61381;50.118;19.962;2023-02-26T11:01:27;3.55;;;1.73;;
73170;SDS011;61381;50.118;19.962;2023-02-26T11:06:30;2.90;;;2.20;;
73170;SDS011;61381;50.118;19.962;2023-02-26T11:11:36;2.17;;;1.60;;
73170;SDS011;61381;50.118;19.962;2023-02-26T11:16:41;4.57;;;2.00;;
73170;SDS011;61381;50.118;19.962;2023-02-26T11:21:47;2.83;;;1.52;;
73170;SDS011;61381;50.118;19.962;2023-02-26T11:26:53;3.13;;;1.17;;
73170;SDS011;61381;50.118;19.962;2023-02-26T11:31:56;4.10;;;1.98;;
73170;SDS011;61381;50.118;19.962;2023-02-26T11:36:59;2.95;;;1.60;;
73170;SDS011;61381;50.118;19.962;2023-02-26T11:42:02;4.40;;;2.20;;
73170;SDS011;61381;50.118;19.962;2023-02-26T11:47:05;3.22;;;1.83;;
73170;SDS011;61381;50.118;19.962;2023-02-26T11:52:19;2.63;;;0.95;;
73170;SDS011;61381;50.118;19.962;2023-02-26T11:57:24;1.92;;;1.10;;
73170;SDS011;61381;50.118;19.962;2023-02-26T12:02:30;3.50;;;1.50;;
73170;SDS011;61381;50.118;19.962;2023-02-26T12:07:33;2.97;;;1.60;;
73170;SDS011;61381;50.118;19.962;2023-02-26T12:12:41;2.53;;;1.17;;
73170;SDS011;61381;50.118;19.962;2023-02-26T12:17:56;8.48;;;3.60;;
73170;SDS011;61381;50.118;19.962;2023-02-26T12:23:25;6.95;;;2.28;;
73170;SDS011;61381;50.118;19.962;2023-02-26T12:28:51;5.03;;;2.38;;
73170;SDS011;61381;50.118;19.962;2023-02-26T12:34:26;11.18;;;4.65;;
73170;SDS011;61381;50.118;19.962;2023-02-26T12:39:45;6.18;;;3.28;;
73170;SDS011;61381;50.118;19.962;2023-02-26T12:45:05;7.53;;;3.08;;
73170;SDS011;61381;50.118;19.962;2023-02-26T12:55:46;11.48;;;5.85;;
73170;SDS011;61381;50.118;19.962;2023-02-26T13:01:02;11.93;;;5.35;;
73170;SDS011;61381;50.118;19.962;2023-02-26T13:11:53;5.03;;;3.15;;
73170;SDS011;61381;50.118;19.962;2023-02-26T13:17:11;6.45;;;3.25;;
73170;SDS011;61381;50.118;19.962;2023-02-26T13:22:23;4.00;;;2.13;;
73170;SDS011;61381;50.118;19.962;2023-02-26T13:27:29;5.28;;;2.38;;
73170;SDS011;61381;50.118;19.962;2023-02-26T13:32:34;3.85;;;2.00;;
73170;SDS011;61381;50.118;19.962;2023-02-26T13:37:39;5.40;;;2.72;;
73170;SDS011;61381;50.118;19.962;2023-02-26T13:42:45;5.97;;;2.55;;
73170;SDS011;61381;50.118;19.962;2023-02-26T13:47:57;4.45;;;2.40;;
73170;SDS011;61381;50.118;19.962;2023-02-26T14:03:51;3.97;;;1.95;;
73170;SDS011;61381;50.118;19.962;2023-02-26T14:08:54;2.95;;;1.83;;
73170;SDS011;61381;50.118;19.962;2023-02-26T14:14:09;6.30;;;3.67;;
73170;SDS011;61381;50.118;19.962;2023-02-26T14:19:20;3.92;;;2.28;;
73170;SDS011;61381;50.118;19.962;2023-02-26T14:24:30;4.93;;;2.63;;
73170;SDS011;61381;50.118;19.962;2023-02-26T14:29:38;4.30;;;2.22;;
73170;SDS011;61381;50.118;19.962;2023-02-26T14:34:45;7.65;;;3.75;;
73170;SDS011;61381;50.118;19.962;2023-02-26T14:39:53;7.30;;;3.40;;
73170;SDS011;61381;50.118;19.962;2023-02-26T14:45:01;6.82;;;3.78;;
73170;SDS011;61381;50.118;19.962;2023-02-26T14:50:15;4.82;;;3.22;;
73170;SDS011;61381;50.118;19.962;2023-02-26T14:55:34;5.45;;;3.83;;
73170;SDS011;61381;50.118;19.962;2023-02-26T15:00:46;6.45;;;4.15;;
73170;SDS011;61381;50.118;19.962;2023-02-26T15:11:34;5.72;;;3.22;;
73170;SDS011;61381;50.118;19.962;2023-02-26T15:16:55;5.47;;;3.25;;
73170;SDS011;61381;50.118;19.962;2023-02-26T15:22:11;2.90;;;2.05;;
73170;SDS011;61381;50.118;19.962;2023-02-26T15:27:22;5.40;;;2.95;;
73170;SDS011;61381;50.118;19.962;2023-02-26T15:32:24;5.65;;;3.17;;
73170;SDS011;61381;50.118;19.962;2023-02-26T15:37:28;7.13;;;2.80;;
73170;SDS011;61381;50.118;19.962;2023-02-26T15:42:31;9.10;;;4.55;;
73170;SDS011;61381;50.118;19.962;2023-02-26T15:47:34;6.28;;;3.63;;
73170;SDS011;61381;50.118;19.962;2023-02-26T15:52:37;4.57;;;2.60;;
73170;SDS011;61381;50.118;19.962;2023-02-26T15:57:40;5.90;;;4.07;;
73170;SDS011;61381;50.118;19.962;2023-02-26T16:02:41;6.32;;;3.40;;
73170;SDS011;61381;50.118;19.962;2023-02-26T16:07:45;10.82;;;4.45;;
73170;SDS011;61381;50.118;19.962;2023-02-26T16:12:46;8.25;;;4.20;;
73170;SDS011;61381;50.118;19.962;2023-02-26T16:17:49;9.68;;;4.40;;
73170;SDS011;61381;50.118;19.962;2023-02-26T16:22:56;13.35;;;6.60;;
73170;SDS011;61381;50.118;19.962;2023-02-26T16:28:02;9.27;;;4.20;;
73170;SDS011;61381;50.118;19.962;2023-02-26T16:33:08;5.07;;;2.72;;
73170;SDS011;61381;50.118;19.962;2023-02-26T16:38:18;3.95;;;2.70;;
73170;SDS011;61381;50.118;19.962;2023-02-26T16:43:32;5.95;;;3.90;;
73170;SDS011;61381;50.118;19.962;2023-02-26T16:48:37;7.25;;;3.45;;
73170;SDS011;61381;50.118;19.962;2023-02-26T16:53:47;5.57;;;2.67;;
73170;SDS011;61381;50.118;19.962;2023-02-26T16:58:53;5.10;;;2.92;;
73170;SDS011;61381;50.118;19.962;2023-02-26T17:04:01;7.22;;;2.75;;
73170;SDS011;61381;50.118;19.962;2023-02-26T17:09:04;5.32;;;2.67;;
73170;SDS011;61381;50.118;19.962;2023-02-26T17:14:12;10.88;;;4.13;;
73170;SDS011;61381;50.118;19.962;2023-02-26T17:19:15;5.15;;;2.53;;
73170;SDS011;61381;50.118;19.962;2023-02-26T17:29:21;5.55;;;3.25;;
73170;SDS011;61381;50.118;19.962;2023-02-26T17:34:32;5.68;;;2.58;;
73170;SDS011;61381;50.118;19.962;2023-02-26T17:39:35;5.93;;;3.22;;
73170;SDS011;61381;50.118;19.962;2023-02-26T17:44:36;6.30;;;3.35;;
73170;SDS011;61381;50.118;19.962;2023-02-26T17:49:37;7.18;;;3.33;;
73170;SDS011;61381;50.118;19.962;2023-02-26T17:54:39;9.45;;;4.65;;
73170;SDS011;61381;50.118;19.962;2023-02-26T17:59:41;13.75;;;5.47;;
73170;SDS011;61381;50.118;19.962;2023-02-26T18:04:42;7.22;;;2.95;;
73170;SDS011;61381;50.118;19.962;2023-02-26T18:09:45;6.88;;;2.97;;
73170;SDS011;61381;50.118;19.962;2023-02-26T18:14:48;6.22;;;2.70;;
73170;SDS011;61381;50.118;19.962;2023-02-26T18:19:49;9.75;;;4.82;;
73170;SDS011;61381;50.118;19.962;2023-02-26T18:24:52;8.10;;;4.72;;
73170;SDS011;61381;50.118;19.962;2023-02-26T18:29:53;7.70;;;4.05;;
73170;SDS011;61381;50.118;19.962;2023-02-26T18:34:55;9.40;;;4.40;;
73170;SDS011;61381;50.118;19.962;2023-02-26T18:39:59;11.82;;;4.72;;
73170;SDS011;61381;50.118;19.962;2023-02-26T18:45:01;10.50;;;4.72;;
73170;SDS011;61381;50.118;19.962;2023-02-26T18:50:02;10.73;;;4.20;;
73170;SDS011;61381;50.118;19.962;2023-02-26T18:55:06;6.53;;;3.63;;
73170;SDS011;61381;50.118;19.962;2023-02-26T19:00:08;9.73;;;4.10;;
73170;SDS011;61381;50.118;19.962;2023-02-26T19:05:12;6.97;;;2.60;;
73170;SDS011;61381;50.118;19.962;2023-02-26T19:10:15;9.80;;;3.55;;
73170;SDS011;61381;50.118;19.962;2023-02-26T19:15:17;10.98;;;6.32;;
73170;SDS011;61381;50.118;19.962;2023-02-26T19:20:18;18.70;;;7.22;;
73170;SDS011;61381;50.118;19.962;2023-02-26T19:25:21;12.45;;;5.43;;
73170;SDS011;61381;50.118;19.962;2023-02-26T19:30:22;13.32;;;5.20;;
73170;SDS011;61381;50.118;19.962;2023-02-26T19:35:25;8.25;;;3.30;;
73170;SDS011;61381;50.118;19.962;2023-02-26T19:40:27;8.43;;;3.50;;
73170;SDS011;61381;50.118;19.962;2023-02-26T19:45:29;9.25;;;2.67;;
73170;SDS011;61381;50.118;19.962;2023-02-26T19:50:30;8.55;;;3.67;;
73170;SDS011;61381;50.118;19.962;2023-02-26T19:55:32;2.95;;;1.55;;
73170;SDS011;61381;50.118;19.962;2023-02-26T20:00:34;7.20;;;3.10;;
73170;SDS011;61381;50.118;19.962;2023-02-26T20:05:35;9.38;;;3.03;;
73170;SDS011;61381;50.118;19.962;2023-02-26T20:10:38;5.53;;;3.33;;
73170;SDS011;61381;50.118;19.962;2023-02-26T20:15:39;6.10;;;2.88;;
73170;SDS011;61381;50.118;19.962;2023-02-26T20:20:40;10.23;;;3.70;;
73170;SDS011;61381;50.118;19.962;2023-02-26T20:25:43;7.00;;;3.53;;
73170;SDS011;61381;50.118;19.962;2023-02-26T20:30:44;13.07;;;7.00;;
73170;SDS011;61381;50.118;19.962;2023-02-26T20:35:46;14.25;;;6.53;;
73170;SDS011;61381;50.118;19.962;2023-02-26T20:40:48;20.50;;;10.30;;
73170;SDS011;61381;50.118;19.962;2023-02-26T20:45:50;37.05;;;17.38;;
73170;SDS011;61381;50.118;19.962;2023-02-26T20:50:56;36.10;;;14.45;;
73170;SDS011;61381;50.118;19.962;2023-02-26T20:56:00;23.75;;;9.30;;
73170;SDS011;61381;50.118;19.962;2023-02-26T21:01:01;28.27;;;10.20;;
73170;SDS011;61381;50.118;19.962;2023-02-26T21:06:02;29.10;;;11.20;;
73170;SDS011;61381;50.118;19.962;2023-02-26T21:11:05;23.67;;;11.43;;
73170;SDS011;61381;50.118;19.962;2023-02-26T21:16:06;13.77;;;6.97;;
73170;SDS011;61381;50.118;19.962;2023-02-26T21:21:07;12.43;;;6.07;;
73170;SDS011;61381;50.118;19.962;2023-02-26T21:26:10;14.88;;;6.13;;
73170;SDS011;61381;50.118;19.962;2023-02-26T21:31:11;15.13;;;6.07;;
73170;SDS011;61381;50.118;19.962;2023-02-26T21:36:12;13.43;;;5.68;;
73170;SDS011;61381;50.118;19.962;2023-02-26T21:41:15;19.33;;;5.97;;
73170;SDS011;61381;50.118;19.962;2023-02-26T21:46:16;13.25;;;5.65;;
73170;SDS011;61381;50.118;19.962;2023-02-26T21:51:17;14.38;;;6.38;;
73170;SDS011;61381;50.118;19.962;2023-02-26T21:56:20;13.00;;;5.38;;
73170;SDS011;61381;50.118;19.962;2023-02-26T22:01:21;13.90;;;4.95;;
73170;SDS011;61381;50.118;19.962;2023-02-26T22:06:22;15.00;;;5.65;;
73170;SDS011;61381;50.118;19.962;2023-02-26T22:11:24;18.75;;;4.40;;
73170;SDS011;61381;50.118;19.962;2023-02-26T22:16:26;11.23;;;5.45;;
73170;SDS011;61381;50.118;19.962;2023-02-26T22:21:27;19.65;;;8.45;;
73170;SDS011;61381;50.118;19.962;2023-02-26T22:26:29;20.88;;;9.05;;
73170;SDS011;61381;50.118;19.962;2023-02-26T22:31:31;13.20;;;5.18;;
73170;SDS011;61381;50.118;19.962;2023-02-26T22:36:32;9.70;;;5.03;;
73170;SDS011;61381;50.118;19.962;2023-02-26T22:41:34;14.40;;;6.45;;
73170;SDS011;61381;50.118;19.962;2023-02-26T22:46:36;13.38;;;6.32;;
73170;SDS011;61381;50.118;19.962;2023-02-26T22:51:37;15.23;;;7.20;;
73170;SDS011;61381;50.118;19.962;2023-02-26T22:56:42;13.82;;;4.97;;
73170;SDS011;61381;50.118;19.962;2023-02-26T23:06:47;6.13;;;3.10;;
73170;SDS011;61381;50.118;19.962;2023-02-26T23:11:49;9.60;;;4.60;;
73170;SDS011;61381;50.118;19.962;2023-02-26T23:16:50;20.23;;;8.35;;
73170;SDS011;61381;50.118;19.962;2023-02-26T23:21:51;21.63;;;10.80;;
73170;SDS011;61381;50.118;19.962;2023-02-26T23:26:54;15.18;;;5.78;;
73170;SDS011;61381;50.118;19.962;2023-02-26T23:31:55;11.23;;;4.82;;
73170;SDS011;61381;50.118;19.962;2023-02-26T23:36:56;12.05;;;4.85;;
73170;SDS011;61381;50.118;19.962;2023-02-26T23:41:59;11.13;;;4.72;;
73170;SDS011;61381;50.118;19.962;2023-02-26T23:47:00;18.08;;;8.18;;
73170;SDS011;61381;50.118;19.962;2023-02-26T23:52:01;11.60;;;5.57;;
73170;SDS011;61381;50.118;19.962;2023-02-26T23:57:03;13.60;;;6.53;;
